createdAt,value
2019-02-11T00:00:53.728Z,6.10
2019-02-11T00:03:22.889Z,6.10
2019-02-11T00:05:52.054Z,6.10
2019-02-11T00:08:20.999Z,6.00
2019-02-11T00:10:50.049Z,6.00
2019-02-11T00:13:19.177Z,6.00
2019-02-11T00:15:48.316Z,6.00
2019-02-11T00:18:17.345Z,6.00
2019-02-11T00:20:46.360Z,6.00
2019-02-11T00:23:15.485Z,6.00
2019-02-11T00:25:44.508Z,6.00
2019-02-11T00:28:13.495Z,6.00
2019-02-11T00:30:42.512Z,6.00
2019-02-11T00:33:11.580Z,6.00
2019-02-11T00:35:40.638Z,6.00
2019-02-11T00:38:09.649Z,6.00
2019-02-11T00:40:38.641Z,6.10
2019-02-11T00:43:07.639Z,6.10
2019-02-11T00:45:36.743Z,6.00
2019-02-11T00:48:07.115Z,6.10
2019-02-11T00:50:36.235Z,6.10
2019-02-11T00:53:05.224Z,6.10
2019-02-11T00:55:34.244Z,6.10
2019-02-11T00:58:03.307Z,6.10
2019-02-11T01:00:32.389Z,6.10
2019-02-11T01:03:01.450Z,6.10
2019-02-11T01:05:30.541Z,6.10
2019-02-11T01:07:59.557Z,6.10
2019-02-11T01:10:28.606Z,6.10
2019-02-11T01:12:57.581Z,6.20
2019-02-11T01:15:26.649Z,6.20
2019-02-11T01:17:55.648Z,6.20
2019-02-11T01:20:24.696Z,6.20
2019-02-11T01:22:53.713Z,6.10
2019-02-11T01:25:22.694Z,6.20
2019-02-11T01:27:51.710Z,6.20
2019-02-11T01:30:20.678Z,6.20
2019-02-11T01:32:49.745Z,6.20
2019-02-11T01:35:18.766Z,6.10
2019-02-11T01:37:47.766Z,6.10
2019-02-11T01:40:16.754Z,6.10
2019-02-11T01:42:45.733Z,6.10
2019-02-11T01:45:14.689Z,6.10
2019-02-11T01:47:43.654Z,6.20
2019-02-11T01:50:13.612Z,6.20
2019-02-11T01:52:42.615Z,6.10
2019-02-11T01:55:11.630Z,6.10
2019-02-11T01:57:40.563Z,6.10
2019-02-11T02:00:12.565Z,6.10
2019-02-11T02:02:41.752Z,6.20
2019-02-11T02:05:10.825Z,6.10
2019-02-11T02:07:39.970Z,6.10
2019-02-11T02:10:10.915Z,6.10
2019-02-11T02:12:39.930Z,6.10
2019-02-11T02:15:09.062Z,6.10
2019-02-11T02:17:37.999Z,6.10
2019-02-11T02:20:08.045Z,6.10
2019-02-11T02:22:37.065Z,6.10
2019-02-11T02:25:06.499Z,6.10
2019-02-11T02:27:35.459Z,6.00
2019-02-11T02:30:05.140Z,6.10
2019-02-11T02:32:34.184Z,6.00
2019-02-11T02:35:03.207Z,6.00
2019-02-11T02:37:32.189Z,6.00
2019-02-11T02:40:01.187Z,6.00
2019-02-11T02:42:30.183Z,6.00
2019-02-11T02:44:59.241Z,6.00
2019-02-11T02:47:28.269Z,6.00
2019-02-11T02:49:57.250Z,6.00
2019-02-11T02:52:26.279Z,6.00
2019-02-11T02:54:55.326Z,6.00
2019-02-11T02:57:24.720Z,6.00
2019-02-11T02:59:53.786Z,6.00
2019-02-11T03:02:22.776Z,6.00
2019-02-11T03:04:51.738Z,6.00
2019-02-11T03:07:20.767Z,6.00
2019-02-11T03:09:49.846Z,6.00
2019-02-11T03:12:18.859Z,6.00
2019-02-11T03:14:47.851Z,6.00
2019-02-11T03:17:16.946Z,6.00
2019-02-11T03:19:45.979Z,6.00
2019-02-11T03:22:14.999Z,6.00
2019-02-11T03:24:43.955Z,5.90
2019-02-11T03:27:12.974Z,6.00
2019-02-11T03:29:41.986Z,5.90
2019-02-11T03:32:10.973Z,5.90
2019-02-11T03:34:39.994Z,5.90
2019-02-11T03:37:09.016Z,5.90
2019-02-11T03:39:37.981Z,5.90
2019-02-11T03:42:06.999Z,6.00
2019-02-11T03:44:36.044Z,6.00
2019-02-11T03:47:05.049Z,5.90
2019-02-11T03:49:34.071Z,6.00
2019-02-11T03:52:03.013Z,6.00
2019-02-11T03:54:32.030Z,6.00
2019-02-11T03:57:01.120Z,6.00
2019-02-11T03:59:30.115Z,6.00
2019-02-11T04:01:59.113Z,6.00
2019-02-11T04:04:28.101Z,6.10
2019-02-11T04:06:57.078Z,6.10
2019-02-11T04:09:26.201Z,6.10
2019-02-11T04:11:55.247Z,6.00
2019-02-11T04:14:25.245Z,6.00
2019-02-11T04:16:54.296Z,6.00
2019-02-11T04:19:23.286Z,6.00
2019-02-11T04:22:08.204Z,6.00
2019-02-11T04:24:37.297Z,6.00
2019-02-11T04:27:06.333Z,6.00
2019-02-11T04:29:35.270Z,5.90
2019-02-11T04:32:04.327Z,6.00
2019-02-11T04:34:33.322Z,5.90
2019-02-11T04:37:02.357Z,5.90
2019-02-11T04:39:31.400Z,5.90
2019-02-11T04:42:19.627Z,5.90
2019-02-11T04:44:48.720Z,5.90
2019-02-11T04:47:17.741Z,5.90
2019-02-11T04:49:46.715Z,5.90
2019-02-11T04:52:17.183Z,5.90
2019-02-11T04:54:46.219Z,5.90
2019-02-11T04:57:15.220Z,5.90
2019-02-11T04:59:44.201Z,5.80
2019-02-11T05:02:13.271Z,5.90
2019-02-11T05:04:42.394Z,5.80
2019-02-11T05:07:11.526Z,5.80
2019-02-11T05:09:40.554Z,5.80
2019-02-11T05:12:09.565Z,5.80
2019-02-11T05:14:43.783Z,5.90
2019-02-11T05:17:09.441Z,5.80
2019-02-11T05:19:38.480Z,5.90
2019-02-11T05:22:07.517Z,5.80
2019-02-11T05:24:36.512Z,5.80
2019-02-11T05:27:05.549Z,5.80
2019-02-11T05:29:34.545Z,5.80
2019-02-11T05:32:03.577Z,5.80
2019-02-11T05:34:32.609Z,5.80
2019-02-11T05:37:01.593Z,5.80
2019-02-11T05:39:30.549Z,5.80
2019-02-11T05:41:59.571Z,5.80
2019-02-11T05:44:28.627Z,5.80
2019-02-11T05:46:57.625Z,5.70
2019-02-11T05:49:26.652Z,5.80
2019-02-11T05:51:55.678Z,5.80
2019-02-11T05:54:24.684Z,5.80
2019-02-11T05:56:53.714Z,5.70
2019-02-11T05:59:44.958Z,5.70
2019-02-11T06:02:15.590Z,5.70
2019-02-11T06:04:44.690Z,5.70
2019-02-11T06:07:13.737Z,5.70
2019-02-11T06:09:42.825Z,5.70
2019-02-11T06:12:11.908Z,5.70
2019-02-11T06:14:40.923Z,5.60
2019-02-11T06:17:09.988Z,5.70
2019-02-11T06:19:39.125Z,5.60
2019-02-11T06:22:08.423Z,5.60
2019-02-11T06:24:37.476Z,5.60
2019-02-11T06:27:06.529Z,5.60
2019-02-11T06:29:35.483Z,5.70
2019-02-11T06:32:04.490Z,5.60
2019-02-11T06:34:33.911Z,5.60
2019-02-11T06:37:03.034Z,5.60
2019-02-11T06:39:32.065Z,5.60
2019-02-11T06:42:01.070Z,5.60
2019-02-11T06:44:30.098Z,5.60
2019-02-11T06:46:59.047Z,5.60
2019-02-11T06:49:28.050Z,5.60
2019-02-11T06:51:57.044Z,5.60
2019-02-11T06:54:26.036Z,5.60
2019-02-11T06:56:55.049Z,5.60
2019-02-11T06:59:24.086Z,5.60
2019-02-11T07:01:53.138Z,5.50
2019-02-11T07:04:22.181Z,5.60
2019-02-11T07:06:51.289Z,5.50
2019-02-11T07:09:20.334Z,5.60
2019-02-11T07:11:49.368Z,5.60
2019-02-11T07:14:18.366Z,5.60
2019-02-11T07:16:47.369Z,5.60
2019-02-11T07:19:16.349Z,5.60
2019-02-11T07:21:45.409Z,5.60
2019-02-11T07:24:14.450Z,5.60
2019-02-11T07:26:43.454Z,5.60
2019-02-11T07:29:12.501Z,5.60
2019-02-11T07:31:41.557Z,5.60
2019-02-11T07:34:10.596Z,5.60
2019-02-11T07:36:39.678Z,5.60
2019-02-11T07:39:09.576Z,5.60
2019-02-11T07:42:00.450Z,5.60
2019-02-11T07:44:34.779Z,5.60
2019-02-11T07:47:04.526Z,5.60
2019-02-11T07:49:33.491Z,5.70
2019-02-11T07:52:03.688Z,5.70
2019-02-11T07:54:32.811Z,5.70
2019-02-11T07:57:01.847Z,5.70
2019-02-11T07:59:30.855Z,5.80
2019-02-11T08:01:59.961Z,5.80
2019-02-11T08:04:29.017Z,5.80
2019-02-11T08:06:58.022Z,5.90
2019-02-11T08:09:27.041Z,5.90
2019-02-11T08:11:56.125Z,5.90
2019-02-11T08:14:25.132Z,6.00
2019-02-11T08:16:54.245Z,6.10
2019-02-11T08:19:23.263Z,6.20
2019-02-11T08:21:52.287Z,6.20
2019-02-11T08:24:21.358Z,6.30
2019-02-11T08:26:50.380Z,6.40
2019-02-11T08:29:19.376Z,6.50
2019-02-11T08:31:48.479Z,6.60
2019-02-11T08:34:17.483Z,6.70
2019-02-11T08:36:46.498Z,6.80
2019-02-11T08:39:15.486Z,6.90
2019-02-11T08:41:45.629Z,7.00
2019-02-11T08:44:14.694Z,7.10
2019-02-11T08:46:43.703Z,7.20
2019-02-11T08:49:12.714Z,7.30
2019-02-11T08:51:41.775Z,7.40
2019-02-11T08:54:10.808Z,7.40
2019-02-11T08:56:39.811Z,7.50
2019-02-11T08:59:08.875Z,7.50
2019-02-11T09:01:37.883Z,7.50
2019-02-11T09:04:06.914Z,7.50
2019-02-11T09:06:35.985Z,7.50
2019-02-11T09:09:05.685Z,7.50
2019-02-11T09:11:34.761Z,7.60
2019-02-11T09:14:03.755Z,7.60
2019-02-11T09:16:32.747Z,7.60
2019-02-11T09:19:01.754Z,7.60
2019-02-11T09:21:30.729Z,7.70
2019-02-11T09:23:59.858Z,7.70
2019-02-11T09:26:28.869Z,7.70
2019-02-11T09:28:57.910Z,7.80
2019-02-11T09:31:26.950Z,7.80
2019-02-11T09:33:55.956Z,7.80
2019-02-11T09:36:24.994Z,8.00
2019-02-11T09:38:53.998Z,8.10
2019-02-11T09:41:23.048Z,8.20
2019-02-11T09:43:52.129Z,8.30
2019-02-11T09:46:21.433Z,8.40
2019-02-11T09:48:50.508Z,8.60
2019-02-11T09:51:19.946Z,8.90
2019-02-11T09:53:48.906Z,9.00
2019-02-11T09:56:17.883Z,9.10
2019-02-11T09:58:46.899Z,9.30
2019-02-11T10:01:16.025Z,9.40
2019-02-11T10:03:45.077Z,9.50
2019-02-11T10:06:14.107Z,9.60
2019-02-11T10:08:43.110Z,9.60
2019-02-11T10:11:12.110Z,9.70
2019-02-11T10:13:41.127Z,9.80
2019-02-11T10:16:12.626Z,9.80
2019-02-11T10:18:40.852Z,9.90
2019-02-11T10:21:09.865Z,9.90
2019-02-11T10:23:38.926Z,9.90
2019-02-11T10:26:08.056Z,9.90
2019-02-11T10:28:37.209Z,9.90
2019-02-11T10:31:06.196Z,9.90
2019-02-11T10:33:35.210Z,9.90
2019-02-11T10:36:04.228Z,10.00
2019-02-11T10:38:36.533Z,10.20
2019-02-11T10:41:04.122Z,10.50
2019-02-11T10:43:33.155Z,10.70
2019-02-11T10:46:02.130Z,10.80
2019-02-11T10:48:31.199Z,11.00
2019-02-11T10:51:00.307Z,11.10
2019-02-11T10:53:29.338Z,11.20
2019-02-11T10:55:58.331Z,11.50
2019-02-11T10:58:27.405Z,11.90
2019-02-11T11:00:56.535Z,12.10
2019-02-11T11:03:25.665Z,12.30
2019-02-11T11:05:54.640Z,12.40
2019-02-11T11:08:23.785Z,12.50
2019-02-11T11:10:52.804Z,12.60
2019-02-11T11:13:21.796Z,12.50
2019-02-11T11:15:50.917Z,12.50
2019-02-11T11:18:20.358Z,12.60
2019-02-11T11:20:49.409Z,12.70
2019-02-11T11:23:18.460Z,12.90
2019-02-11T11:25:47.746Z,13.00
2019-02-11T11:28:16.771Z,13.20
2019-02-11T11:30:45.755Z,13.30
2019-02-11T11:33:14.859Z,13.40
2019-02-11T11:35:43.966Z,13.60
2019-02-11T11:38:13.037Z,13.80
2019-02-11T11:40:42.099Z,13.90
2019-02-11T11:43:11.125Z,14.20
2019-02-11T11:45:40.303Z,14.40
2019-02-11T11:48:09.446Z,14.60
2019-02-11T11:50:38.523Z,14.80
2019-02-11T11:53:07.540Z,15.10
2019-02-11T11:55:36.690Z,15.30
2019-02-11T11:58:05.859Z,15.50
2019-02-11T12:00:35.299Z,15.80
2019-02-11T12:03:23.582Z,16.00
2019-02-11T12:05:52.682Z,16.20
2019-02-11T12:08:21.767Z,16.30
2019-02-11T12:10:50.859Z,16.40
2019-02-11T12:13:23.571Z,16.60
2019-02-11T12:15:52.287Z,16.80
2019-02-11T12:18:21.357Z,17.00
2019-02-11T12:20:50.476Z,17.20
2019-02-11T12:23:19.583Z,17.40
2019-02-11T12:25:48.733Z,17.60
2019-02-11T12:28:17.798Z,17.80
2019-02-11T12:30:46.779Z,18.00
2019-02-11T12:33:15.918Z,18.30
2019-02-11T12:35:45.027Z,18.50
2019-02-11T12:38:14.185Z,18.70
2019-02-11T12:40:43.167Z,18.90
2019-02-11T12:43:12.218Z,19.10
2019-02-11T12:45:41.358Z,19.30
2019-02-11T12:48:10.426Z,19.50
2019-02-11T12:50:39.550Z,19.60
2019-02-11T12:53:08.664Z,19.80
2019-02-11T12:55:37.820Z,19.80
2019-02-11T12:58:06.870Z,19.90
2019-02-11T13:00:35.957Z,20.00
2019-02-11T13:03:05.216Z,20.10
2019-02-11T13:05:45.174Z,20.30
2019-02-11T13:08:05.077Z,20.50
2019-02-11T13:10:34.135Z,20.60
2019-02-11T13:13:06.339Z,20.80
2019-02-11T13:15:57.430Z,21.00
2019-02-11T13:18:04.967Z,21.10
2019-02-11T13:20:34.149Z,21.30
2019-02-11T13:23:03.943Z,21.40
2019-02-11T13:25:33.014Z,21.50
2019-02-11T13:28:02.175Z,21.60
2019-02-11T13:30:31.321Z,21.70
2019-02-11T13:33:00.361Z,21.80
2019-02-11T13:35:29.370Z,21.70
2019-02-11T13:38:07.565Z,21.60
2019-02-11T13:40:36.574Z,21.50
2019-02-11T13:43:06.892Z,21.40
2019-02-11T13:45:36.036Z,21.40
2019-02-11T13:48:05.079Z,21.40
2019-02-11T13:50:34.150Z,21.50
2019-02-11T13:53:03.241Z,21.70
2019-02-11T13:55:32.394Z,22.00
2019-02-11T13:58:03.767Z,22.20
2019-02-11T14:00:33.529Z,22.50
2019-02-11T14:03:04.183Z,22.80
2019-02-11T14:05:33.690Z,23.10
2019-02-11T14:08:02.967Z,23.40
2019-02-11T14:10:32.115Z,23.70
2019-02-11T14:13:01.363Z,24.00
2019-02-11T14:15:30.407Z,24.20
2019-02-11T14:18:18.786Z,24.50
2019-02-11T14:20:50.014Z,24.70
2019-02-11T14:23:19.858Z,24.90
2019-02-11T14:25:48.931Z,25.00
2019-02-11T14:28:18.007Z,25.10
2019-02-11T14:30:47.085Z,25.20
2019-02-11T14:33:16.199Z,25.30
2019-02-11T14:35:45.225Z,25.40
2019-02-11T14:38:14.243Z,25.40
2019-02-11T14:40:43.354Z,25.50
2019-02-11T14:43:12.428Z,25.60
2019-02-11T14:45:41.510Z,25.70
2019-02-11T14:48:25.823Z,25.80
2019-02-11T14:50:41.260Z,25.80
2019-02-11T14:53:10.378Z,25.80
2019-02-11T14:55:39.446Z,25.70
2019-02-11T14:58:08.456Z,25.50
2019-02-11T15:00:37.506Z,25.10
2019-02-11T15:03:06.625Z,24.70
2019-02-11T15:05:35.774Z,24.20
2019-02-11T15:08:04.831Z,23.80
2019-02-11T15:10:33.854Z,23.40
2019-02-11T15:13:03.868Z,23.00
2019-02-11T15:15:32.915Z,22.60
2019-02-11T15:18:01.971Z,22.40
2019-02-11T15:20:31.005Z,22.30
2019-02-11T15:23:00.003Z,22.20
2019-02-11T15:25:28.994Z,22.10
2019-02-11T15:27:58.009Z,22.00
2019-02-11T15:30:27.067Z,21.80
2019-02-11T15:32:56.157Z,21.70
2019-02-11T15:35:25.190Z,21.50
2019-02-11T15:37:54.184Z,21.30
2019-02-11T15:40:23.383Z,21.10
2019-02-11T15:42:52.383Z,20.90
2019-02-11T15:45:21.466Z,20.70
2019-02-11T15:47:50.461Z,20.50
2019-02-11T15:50:38.699Z,20.30
2019-02-11T15:53:07.646Z,20.00
2019-02-11T15:55:36.690Z,19.80
2019-02-11T15:58:05.667Z,19.60
2019-02-11T16:00:34.679Z,19.50
2019-02-11T16:03:03.718Z,19.30
2019-02-11T16:05:32.722Z,19.00
2019-02-11T16:08:01.717Z,19.00
2019-02-11T16:10:30.745Z,18.80
2019-02-11T16:12:59.877Z,18.60
2019-02-11T16:15:28.949Z,18.40
2019-02-11T16:17:58.023Z,18.20
2019-02-11T16:20:27.151Z,18.10
2019-02-11T16:22:56.211Z,17.90
2019-02-11T16:25:25.287Z,17.70
2019-02-11T16:27:54.303Z,17.60
2019-02-11T16:30:23.273Z,17.40
2019-02-11T16:32:52.305Z,17.30
2019-02-11T16:35:21.330Z,17.10
2019-02-11T16:37:50.365Z,17.00
2019-02-11T16:40:21.767Z,16.80
2019-02-11T16:42:50.777Z,16.70
2019-02-11T16:45:19.790Z,16.60
2019-02-11T16:47:48.792Z,16.40
2019-02-11T16:50:17.822Z,16.30
2019-02-11T16:52:46.860Z,16.20
2019-02-11T16:55:15.821Z,16.00
2019-02-11T16:57:44.787Z,15.90
2019-02-11T17:00:15.433Z,15.80
2019-02-11T17:02:44.565Z,15.70
2019-02-11T17:05:13.814Z,15.50
2019-02-11T17:07:42.932Z,15.40
2019-02-11T17:10:12.386Z,15.30
2019-02-11T17:12:41.533Z,15.10
2019-02-11T17:15:12.417Z,15.00
2019-02-11T17:17:41.461Z,14.90
2019-02-11T17:20:11.222Z,14.80
2019-02-11T17:22:40.407Z,14.70
2019-02-11T17:25:09.814Z,14.60
2019-02-11T17:27:39.003Z,14.60
2019-02-11T17:30:13.863Z,14.50
2019-02-11T17:32:44.114Z,14.40
2019-02-11T17:35:13.247Z,14.30
2019-02-11T17:37:42.461Z,14.20
2019-02-11T17:40:12.286Z,14.00
2019-02-11T17:42:41.314Z,13.90
2019-02-11T17:45:13.280Z,13.80
2019-02-11T17:48:01.574Z,13.70
2019-02-11T17:50:30.636Z,13.60
2019-02-11T17:53:01.006Z,13.50
2019-02-11T17:55:29.989Z,13.40
2019-02-11T17:57:59.050Z,13.30
2019-02-11T18:00:34.420Z,13.20
2019-02-11T18:03:03.490Z,13.20
2019-02-11T18:05:51.738Z,13.10
2019-02-11T18:08:20.713Z,13.00
2019-02-11T18:10:49.700Z,12.90
2019-02-11T18:13:18.846Z,12.90
2019-02-11T18:15:48.180Z,12.80
2019-02-11T18:18:17.265Z,12.70
2019-02-11T18:20:46.313Z,12.60
2019-02-11T18:23:15.449Z,12.60
2019-02-11T18:25:44.481Z,12.50
2019-02-11T18:28:13.483Z,12.50
2019-02-11T18:30:42.519Z,12.40
2019-02-11T18:33:11.588Z,12.30
2019-02-11T18:35:40.652Z,12.20
2019-02-11T18:38:09.687Z,12.10
2019-02-11T18:40:38.686Z,12.10
2019-02-11T18:43:26.907Z,12.00
2019-02-11T18:45:56.033Z,11.90
2019-02-11T18:48:25.055Z,11.80
2019-02-11T18:50:54.053Z,11.70
2019-02-11T18:53:24.398Z,11.70
2019-02-11T18:55:53.471Z,11.60
2019-02-11T18:58:22.482Z,11.50
2019-02-11T19:00:51.502Z,11.50
2019-02-11T19:03:20.512Z,11.40
2019-02-11T19:05:49.644Z,11.30
2019-02-11T19:08:18.800Z,11.30
2019-02-11T19:10:47.925Z,11.20
2019-02-11T19:13:17.063Z,11.10
2019-02-11T19:15:46.124Z,11.10
2019-02-11T19:18:15.490Z,11.10
2019-02-11T19:20:44.493Z,11.00
2019-02-11T19:23:13.517Z,10.90
2019-02-11T19:25:42.585Z,10.80
2019-02-11T19:28:11.737Z,10.80
2019-02-11T19:30:40.791Z,10.70
2019-02-11T19:33:09.728Z,10.70
2019-02-11T19:35:38.775Z,10.60
2019-02-11T19:38:07.775Z,10.60
2019-02-11T19:40:36.901Z,10.50
2019-02-11T19:43:05.991Z,10.40
2019-02-11T19:45:35.115Z,10.40
2019-02-11T19:48:04.209Z,10.30
2019-02-11T19:50:33.334Z,10.30
2019-02-11T19:53:02.421Z,10.20
2019-02-11T19:55:31.474Z,10.10
2019-02-11T19:58:00.597Z,10.10
2019-02-11T20:00:29.660Z,10.00
2019-02-11T20:02:58.865Z,10.00
2019-02-11T20:05:27.910Z,9.90
2019-02-11T20:07:56.983Z,9.90
2019-02-11T20:10:26.020Z,9.80
2019-02-11T20:12:55.136Z,9.80
2019-02-11T20:15:24.430Z,9.70
2019-02-11T20:17:53.482Z,9.70
2019-02-11T20:20:22.886Z,9.60
2019-02-11T20:22:52.033Z,9.60
2019-02-11T20:25:21.225Z,9.50
2019-02-11T20:27:50.361Z,9.50
2019-02-11T20:30:21.904Z,9.40
2019-02-11T20:32:51.014Z,9.40
2019-02-11T20:35:39.242Z,9.40
2019-02-11T20:38:08.317Z,9.30
2019-02-11T20:40:37.399Z,9.30
2019-02-11T20:43:06.487Z,9.20
2019-02-11T20:45:35.496Z,9.10
2019-02-11T20:48:04.522Z,9.10
2019-02-11T20:50:33.678Z,9.00
2019-02-11T20:53:02.733Z,9.00
2019-02-11T20:55:31.732Z,9.00
2019-02-11T20:58:00.840Z,8.90
2019-02-11T21:00:30.004Z,8.90
2019-02-11T21:03:07.747Z,8.90
2019-02-11T21:05:29.836Z,8.80
2019-02-11T21:07:58.926Z,8.80
2019-02-11T21:10:27.934Z,8.80
2019-02-11T21:12:57.053Z,8.70
2019-02-11T21:15:26.119Z,8.70
2019-02-11T21:17:55.171Z,8.60
2019-02-11T21:20:33.507Z,8.60
2019-02-11T21:23:04.514Z,8.50
2019-02-11T21:25:33.580Z,8.50
2019-02-11T21:28:03.038Z,8.50
2019-02-11T21:30:32.227Z,8.40
2019-02-11T21:33:02.839Z,8.40
2019-02-11T21:35:31.972Z,8.30
2019-02-11T21:38:01.174Z,8.20
2019-02-11T21:40:30.105Z,8.20
2019-02-11T21:42:59.093Z,8.10
2019-02-11T21:45:28.062Z,8.10
2019-02-11T21:47:57.058Z,8.10
2019-02-11T21:50:27.037Z,8.00
2019-02-11T21:52:56.224Z,8.00
2019-02-11T21:55:25.247Z,7.90
2019-02-11T21:57:54.281Z,7.90
2019-02-11T22:00:23.264Z,7.80
2019-02-11T22:02:52.388Z,7.80
2019-02-11T22:05:21.521Z,7.70
2019-02-11T22:07:50.543Z,7.70
2019-02-11T22:10:19.574Z,7.70
2019-02-11T22:12:48.594Z,7.60
2019-02-11T22:15:19.001Z,7.60
2019-02-11T22:17:48.128Z,7.50
2019-02-11T22:20:17.945Z,7.50
2019-02-11T22:22:46.963Z,7.50
2019-02-11T22:25:16.001Z,7.40
2019-02-11T22:27:45.069Z,7.40
2019-02-11T22:30:16.014Z,7.30
2019-02-11T22:32:45.056Z,7.30
2019-02-11T22:35:14.031Z,7.20
2019-02-11T22:37:43.056Z,7.20
2019-02-11T22:40:12.521Z,7.20
2019-02-11T22:43:00.750Z,7.10
2019-02-11T22:45:29.897Z,7.10
2019-02-11T22:47:58.946Z,7.10
2019-02-11T22:50:27.895Z,7.00
2019-02-11T22:52:56.904Z,7.00
2019-02-11T22:55:25.895Z,7.00
2019-02-11T22:57:54.944Z,7.00
2019-02-11T23:01:06.644Z,7.00
2019-02-11T23:03:36.349Z,7.10
2019-02-11T23:06:05.821Z,7.00
2019-02-11T23:08:34.874Z,7.00
2019-02-11T23:11:03.876Z,7.00
2019-02-11T23:13:32.874Z,7.00
2019-02-11T23:16:01.923Z,6.90
2019-02-11T23:18:31.074Z,6.90
2019-02-11T23:21:00.153Z,6.90
2019-02-11T23:23:29.173Z,6.90
2019-02-11T23:25:58.204Z,6.80
2019-02-11T23:28:27.329Z,6.80
2019-02-11T23:30:56.414Z,6.80
2019-02-11T23:33:25.427Z,6.70
2019-02-11T23:35:54.434Z,6.70
2019-02-11T23:38:23.508Z,6.70
2019-02-11T23:40:52.506Z,6.60
2019-02-11T23:43:21.651Z,6.60
2019-02-11T23:45:50.691Z,6.60
2019-02-11T23:48:19.777Z,6.50
2019-02-11T23:50:48.923Z,6.50
2019-02-11T23:53:18.001Z,6.50
2019-02-11T23:55:47.078Z,6.50
2019-02-11T23:58:16.181Z,6.40
